1997 BELLAMINE:MELANIE:MELANIE_BELL (1996302S07095)


On this page: IBTrACS data - Map and Plots - Positions - Intensities - Original source data

Summary

Start Oct 28
End Nov 12
Basin SI
LMI 125 kt
Sources jtwc_sh
bom
reunion
neumann
In WMO? Yes
Previous storm 1996 MISSING (WP)
Previous in basin 1997 ANTOINETTE (SI)
Concurrent storms 1996 MISSING (NI)
1996 LILI (NA)
1996 MISSING (NI)
1996 MISSING (WP)
1997 BELLAMINE (SI)
1996 ERNIE (WP)
1996 TD1102 (WP)
1996 MISSING (NI)
1996 DALE (WP)
1996 MISSING (WP)
1996 MISSING (EP)
1996 ERNIE (WP)
Next in basin Missing
Next storm 1996 ERNIE (WP)

top of page IBTrACS Data: File Access

No storm imagery available

top of page Plots:

Map of storm track will not appear if FTP is down
Time series of cyclone Maximum Sustained Wind will not appear if FTP is down
Time series of cyclone Minimum Central Pressure will not appear if FTP is down

top of page Track Data:Position

jtwc_sh bom reunion neumann
Date Lat Lon Lat Lon Lat Lon Lat Lon
1996-10-28 00:00:00 -6.7 94.8 -6.7 94.8
1996-10-28 06:00:00 -7.2 95.1 -7.2 95.1
1996-10-28 12:00:00 -7.6 95.4 -9.1 97.7 -7.6 95.4
1996-10-28 18:00:00 -8.0 95.7 -9.2 97.3 -8.0 95.7
1996-10-29 00:00:00 -8.4 96.0 -9.3 97.0 -10.1 96.8 -8.4 96.0
1996-10-29 06:00:00 -8.9 96.2 -9.5 96.6 -10.2 96.5 -8.9 96.2
1996-10-29 12:00:00 -9.5 96.2 -9.7 96.3 -10.2 96.3 -9.5 96.2
1996-10-29 18:00:00 -10.0 96.2 -9.8 96.1 -10.3 96.1 -10.0 96.2
1996-10-30 00:00:00 -10.2 96.2 -10.0 95.9 -10.3 96.0 -10.2 96.2
1996-10-30 06:00:00 -10.3 96.1 -10.1 95.7 -10.3 95.8 -10.3 96.1
1996-10-30 12:00:00 -10.4 96.0 -10.1 95.3 -10.3 95.6 -10.4 96.0
1996-10-30 18:00:00 -10.4 95.8 -10.1 95.3 -10.3 95.5 -10.4 95.8
1996-10-31 00:00:00 -10.3 95.5 -9.9 95.2 -10.2 95.3 -10.3 95.5
1996-10-31 06:00:00 -10.2 95.3 -9.6 94.8 -10.1 95.1 -10.2 95.3
1996-10-31 12:00:00 -10.0 94.9 -9.2 94.2 -9.9 94.6 -10.0 94.9
1996-10-31 18:00:00 -9.8 94.4 -8.9 93.3 -9.6 93.9 -9.8 94.4
1996-11-01 00:00:00 -9.5 93.2 -8.6 92.3 -9.2 93.1 -9.5 93.2
1996-11-01 06:00:00 -9.3 91.8 -8.6 91.5 -8.8 92.2 -9.3 91.8
1996-11-01 12:00:00 -9.0 90.6 -8.6 90.7 -8.7 91.2 -9.0 90.6
1996-11-01 18:00:00 -8.8 89.3 -8.6 89.9 -8.8 90.0 -8.8 89.3
1996-11-02 00:00:00 -8.7 88.7 -8.6 89.1 -9.0 88.9 -8.7 88.7
1996-11-02 06:00:00 -8.7 88.1 -8.6 88.5 -9.3 88.0 -8.7 88.1
1996-11-02 12:00:00 -8.9 87.7 -8.8 88.0 -9.5 87.4 -8.9 87.7
1996-11-02 18:00:00 -9.2 87.4 -9.2 87.5 -9.7 87.0 -9.2 87.4
1996-11-03 00:00:00 -9.7 87.2 -9.3 87.0 -9.9 86.8 -9.7 87.2
jtwc_sh bom reunion neumann
1996-11-03 06:00:00 -10.1 86.7 -9.8 86.7 -10.0 86.5 -10.1 86.7
1996-11-03 12:00:00 -10.3 86.2 -10.1 86.4 -10.1 86.2 -10.3 86.2
1996-11-03 18:00:00 -10.4 85.7 -10.2 85.8 -10.2 85.9 -10.4 85.7
1996-11-04 00:00:00 -10.4 85.4 -10.3 85.5 -10.5 85.6 -10.4 85.4
1996-11-04 06:00:00 -10.4 85.2 -10.4 85.3 -10.5 85.2 -10.4 85.2
1996-11-04 12:00:00 -10.5 85.0 -10.4 85.1 -10.5 85.1 -10.5 85.0
1996-11-04 18:00:00 -10.5 84.8 -10.5 85.0 -10.6 85.1 -10.5 84.8
1996-11-05 00:00:00 -10.6 84.4 -10.6 84.8 -10.7 84.8 -10.6 84.4
1996-11-05 06:00:00 -10.7 83.9 -10.7 84.3 -10.8 84.3 -10.7 83.9
1996-11-05 12:00:00 -10.9 83.3 -11.0 83.7 -10.9 83.9 -10.9 83.3
1996-11-05 18:00:00 -11.1 82.7 -11.2 83.0 -11.0 83.2 -11.1 82.7
1996-11-06 00:00:00 -11.4 82.0 -11.3 82.2 -11.2 82.4 -11.4 82.0
1996-11-06 06:00:00 -11.5 81.3 -11.5 81.4 -11.5 81.6 -11.5 81.3
1996-11-06 12:00:00 -11.7 80.6 -11.6 80.7 -11.8 80.8 -11.7 80.6
1996-11-06 18:00:00 -12.0 79.6 -11.7 80.0 -11.9 80.0 -12.0 79.6
1996-11-07 00:00:00 -12.4 78.7 -12.2 79.2 -12.4 78.7
1996-11-07 06:00:00 -12.7 77.9 -12.6 78.5 -12.7 77.9
1996-11-07 12:00:00 -13.3 77.2 -13.2 77.8 -13.3 77.2
1996-11-07 18:00:00 -14.0 76.7 -14.0 77.2 -14.0 76.7
1996-11-08 00:00:00 -14.8 76.6 -14.6 76.9 -14.8 76.6
1996-11-08 06:00:00 -15.4 76.6 -15.2 77.2 -15.4 76.6
1996-11-08 12:00:00 -16.0 76.9 -15.8 77.5 -16.0 76.9
1996-11-08 18:00:00 -16.7 77.4 -16.9 77.5 -16.7 77.4
1996-11-09 00:00:00 -17.7 78.3 -17.6 77.7 -17.7 78.3
jtwc_sh bom reunion neumann
1996-11-09 06:00:00 -18.6 79.1 -18.9 78.4 -18.6 79.1
1996-11-09 12:00:00 -19.2 79.7 -20.1 78.9 -19.2 79.7
1996-11-09 18:00:00 -20.4 79.9 -21.1 79.0 -20.4 79.9
1996-11-10 00:00:00 -21.4 79.6 -21.4 79.3 -21.4 79.6
1996-11-10 06:00:00 -21.8 78.9 -21.5 79.2 -21.8 78.9
1996-11-10 12:00:00 -21.9 78.4 -21.5 79.0 -21.9 78.4
1996-11-10 18:00:00 -22.1 77.9 -21.8 78.4 -22.1 77.9
1996-11-11 00:00:00 -22.3 77.6 -22.1 77.6 -22.3 77.6
1996-11-11 06:00:00 -22.6 76.5 -22.4 76.9 -22.6 76.5
1996-11-11 12:00:00 -22.9 75.6 -22.5 76.4 -22.9 75.6
1996-11-11 18:00:00 -23.0 75.1 -22.3 76.1 -23.0 75.1
1996-11-12 00:00:00 -23.1 74.8 -22.4 76.2 -23.1 74.8
1996-11-12 06:00:00 -23.2 74.5 -23.2 74.5
1996-11-12 12:00:00 -23.3 74.2 -23.3 74.2

top of pageTrack Data:Intensity

jtwc_sh bom reunion neumann
Date Wind Pres Wind Pres Wind Pres Wind Pres
1996-10-28 00:00:00 20. 20.
1996-10-28 06:00:00 20. 20.
1996-10-28 12:00:00 20. 23. 1002. 20.
1996-10-28 18:00:00 25. 27. 1000. 25.
1996-10-29 00:00:00 25. 27. 1000. 25. 1000. 25.
1996-10-29 06:00:00 30. 27. 1000. 25. 1000. 30.
1996-10-29 12:00:00 30. 27. 1000. 25. 1000. 30.
1996-10-29 18:00:00 30. 27. 1000. 25. 1000. 30.
1996-10-30 00:00:00 35. 27. 1000. 25. 1000. 35.
1996-10-30 06:00:00 35. 27. 1000. 25. 1000. 35.
1996-10-30 12:00:00 35. 29. 998. 30. 997. 35.
1996-10-30 18:00:00 35. 29. 998. 30. 997. 35.
1996-10-31 00:00:00 40. 29. 998. 30. 997. 40.
1996-10-31 06:00:00 45. 29. 998. 30. 997. 45.
1996-10-31 12:00:00 45. 29. 998. 30. 995. 45.
1996-10-31 18:00:00 45. 35. 995. 35. 992. 45.
1996-11-01 00:00:00 50. 41. 990. 35. 990. 50.
1996-11-01 06:00:00 55. 41. 990. 40. 987. 55.
1996-11-01 12:00:00 60. 41. 990. 45. 984. 60.
1996-11-01 18:00:00 65. 41. 990. 50. 980. 65.
1996-11-02 00:00:00 65. 47. 985. 55. 975. 65.
1996-11-02 06:00:00 65. 47. 985. 60. 970. 65.
1996-11-02 12:00:00 65. 54. 980. 60. 970. 65.
1996-11-02 18:00:00 65. 70. 965. 60. 970. 65.
1996-11-03 00:00:00 65. 70. 965. 65. 965. 65.
jtwc_sh bom reunion neumann
1996-11-03 06:00:00 70. 80. 955. 70. 955. 70.
1996-11-03 12:00:00 80. 84. 950. 75. 950. 80.
1996-11-03 18:00:00 90. 93. 940. 85. 940. 90.
1996-11-04 00:00:00 100. 105. 925. 90. 930. 100.
1996-11-04 06:00:00 100. 107. 920. 95. 925. 100.
1996-11-04 12:00:00 100. 107. 920. 95. 925. 100.
1996-11-04 18:00:00 110. 89. 945. 95. 925. 110.
1996-11-05 00:00:00 110. 89. 945. 90. 930. 110.
1996-11-05 06:00:00 110. 80. 955. 85. 940. 110.
1996-11-05 12:00:00 115. 84. 950. 80. 945. 115.
1996-11-05 18:00:00 115. 89. 945. 80. 945. 115.
1996-11-06 00:00:00 105. 89. 945. 75. 950. 105.
1996-11-06 06:00:00 105. 97. 935. 80. 945. 105.
1996-11-06 12:00:00 105. 101. 930. 80. 945. 105.
1996-11-06 18:00:00 115. 97. 935. 85. 940. 115.
1996-11-07 00:00:00 125. 90. 930. 125.
1996-11-07 06:00:00 125. 95. 925. 125.
1996-11-07 12:00:00 120. 95. 925. 120.
1996-11-07 18:00:00 120. 95. 925. 120.
1996-11-08 00:00:00 115. 90. 930. 115.
1996-11-08 06:00:00 110. 85. 940. 110.
1996-11-08 12:00:00 110. 80. 945. 110.
1996-11-08 18:00:00 105. 70. 955. 105.
1996-11-09 00:00:00 100. 60. 970. 100.
jtwc_sh bom reunion neumann
1996-11-09 06:00:00 90. 55. 975. 90.
1996-11-09 12:00:00 80. 50. 980. 80.
1996-11-09 18:00:00 65. 45. 984. 65.
1996-11-10 00:00:00 50. 40. 987. 50.
1996-11-10 06:00:00 45. 30. 995. 45.
1996-11-10 12:00:00 40. 25. 1000. 40.
1996-11-10 18:00:00 35. 20. 1002. 35.
1996-11-11 00:00:00 30. 20. 1004. 30.
1996-11-11 06:00:00 25. 20. 1005. 25.
1996-11-11 12:00:00 25. 20. 1007. 25.
1996-11-11 18:00:00 20. 20. 1008. 20.
1996-11-12 00:00:00 20. 20. 1008. 20.
1996-11-12 06:00:00 15. 15.
1996-11-12 12:00:00 15. 15.

top of page Links to source data

Source Source file Format
jtwc_sh bsh051997.txt ATCF
bom Newcyclonedatabase-08repair.csv:Line=17928:MELANIE CSV file (from Excel file)
reunion WMO-Best-Tracks.txt:Line=17615:bellamine WMO (old format)
neumann tracks.sh:Storm=1069:MELANIE/BELL:AMINEBSH051997:JTWC&BM852 HURDAT